Time;durP1;ratioP1;P1;durP2;ratioP2;P2;SDS_P1;SDS_P2;PMS_P1;PMS_P2;Temp;Humidity;BMP_temperature;BMP_pressure;BME280_temperature;BME280_humidity;BME280_pressure;Samples;Min_cycle;Max_cycle;Signal;HPM_P1;HPM_P2
2021/06/22 00:00:40;;;;;;;9.02;4.50;;;;;;;;;;4424590;32;20226;-72
2021/06/22 00:03:05;;;;;;;9.75;4.50;;;;;;;;;;4438715;32;20162;-72
2021/06/22 00:05:32;;;;;;;9.75;3.92;;;;;;;;;;4438539;32;20176;-73
2021/06/22 00:07:57;;;;;;;8.23;4.45;;;;;;;;;;4425234;32;20191;-72
2021/06/22 00:10:24;;;;;;;8.60;4.70;;;;;;;;;;4441217;32;20138;-73
2021/06/22 00:12:50;;;;;;;9.13;4.50;;;;;;;;;;4442795;32;20188;-74
2021/06/22 00:15:16;;;;;;;10.75;4.75;;;;;;;;;;4424646;32;20157;-72
2021/06/22 00:17:42;;;;;;;8.90;4.22;;;;;;;;;;4425898;32;20195;-72
2021/06/22 00:20:08;;;;;;;10.15;4.80;;;;;;;;;;4438167;32;20135;-72
2021/06/22 00:22:33;;;;;;;10.55;4.70;;;;;;;;;;4440356;32;20142;-72
2021/06/22 00:24:58;;;;;;;8.80;4.07;;;;;;;;;;4439697;32;20149;-72
2021/06/22 00:27:23;;;;;;;7.60;4.00;;;;;;;;;;4437978;32;20137;-72
2021/06/22 00:29:50;;;;;;;8.68;4.00;;;;;;;;;;4438343;32;20230;-72
2021/06/22 00:32:16;;;;;;;7.30;4.00;;;;;;;;;;4439848;32;20195;-72
2021/06/22 00:34:41;;;;;;;9.98;3.90;;;;;;;;;;4439099;32;20460;-72
2021/06/22 00:37:06;;;;;;;6.87;3.63;;;;;;;;;;4439457;32;20137;-72
2021/06/22 00:39:31;;;;;;;8.82;4.10;;;;;;;;;;4438971;32;20638;-73
2021/06/22 00:41:56;;;;;;;9.18;4.10;;;;;;;;;;4437831;32;20133;-72
2021/06/22 00:44:22;;;;;;;8.38;4.28;;;;;;;;;;4438236;32;20164;-72
2021/06/22 00:46:47;;;;;;;8.63;4.00;;;;;;;;;;4437699;32;20492;-72
2021/06/22 00:49:12;;;;;;;5.67;3.97;;;;;;;;;;4439857;32;20134;-72
2021/06/22 00:51:37;;;;;;;6.70;3.67;;;;;;;;;;4423728;32;20297;-73
2021/06/22 00:54:02;;;;;;;7.65;3.97;;;;;;;;;;4439892;32;20558;-74
2021/06/22 00:56:28;;;;;;;9.27;4.65;;;;;;;;;;4439901;32;20167;-73
2021/06/22 00:58:54;;;;;;;8.52;4.35;;;;;;;;;;4439285;32;20635;-73
2021/06/22 01:01:19;;;;;;;6.75;3.95;;;;;;;;;;4423211;32;20209;-73
2021/06/22 01:03:44;;;;;;;9.40;4.22;;;;;;;;;;4438565;32;20160;-73
2021/06/22 01:06:10;;;;;;;7.62;4.50;;;;;;;;;;4438129;32;20246;-73
2021/06/22 01:08:35;;;;;;;8.35;3.97;;;;;;;;;;4438289;32;20180;-72
2021/06/22 01:11:01;;;;;;;6.22;3.65;;;;;;;;;;4423377;32;20199;-72
2021/06/22 01:13:26;;;;;;;8.30;4.70;;;;;;;;;;4437015;32;20568;-72
2021/06/22 01:15:51;;;;;;;11.48;4.32;;;;;;;;;;4436506;32;20163;-73
2021/06/22 01:18:17;;;;;;;8.98;4.78;;;;;;;;;;4436625;32;20229;-73
2021/06/22 01:20:42;;;;;;;8.98;4.25;;;;;;;;;;4438328;32;20228;-72
2021/06/22 01:23:08;;;;;;;8.52;3.95;;;;;;;;;;4437229;32;20129;-72
2021/06/22 01:25:33;;;;;;;8.70;4.05;;;;;;;;;;4438275;32;20232;-72
2021/06/22 01:27:59;;;;;;;7.82;4.30;;;;;;;;;;4436489;32;20141;-72
2021/06/22 01:30:26;;;;;;;7.90;4.18;;;;;;;;;;4437033;32;20138;-72
2021/06/22 01:32:51;;;;;;;10.25;4.57;;;;;;;;;;4437230;32;20141;-72
2021/06/22 01:35:17;;;;;;;7.62;4.62;;;;;;;;;;4436258;32;20169;-72
2021/06/22 01:37:49;;;;;;;10.52;4.30;;;;;;;;;;4424054;32;20174;-73
2021/06/22 01:40:14;;;;;;;10.50;4.00;;;;;;;;;;4422318;32;20195;-73
2021/06/22 01:42:39;;;;;;;7.03;4.80;;;;;;;;;;4436237;32;20176;-73
2021/06/22 01:45:05;;;;;;;12.90;4.73;;;;;;;;;;4436587;32;20177;-72
2021/06/22 01:47:30;;;;;;;10.65;4.35;;;;;;;;;;4436740;32;20237;-72
2021/06/22 01:49:59;;;;;;;7.80;3.95;;;;;;;;;;4437892;32;20146;-72
2021/06/22 01:52:24;;;;;;;8.82;3.80;;;;;;;;;;4437594;32;20183;-73
2021/06/22 01:54:53;;;;;;;6.75;4.32;;;;;;;;;;4421998;32;20658;-73
2021/06/22 01:57:18;;;;;;;6.72;3.62;;;;;;;;;;4436453;32;20187;-73
2021/06/22 01:59:44;;;;;;;7.47;4.28;;;;;;;;;;4437991;32;20157;-72
2021/06/22 02:02:09;;;;;;;11.50;4.60;;;;;;;;;;4436782;32;20299;-73
2021/06/22 02:04:35;;;;;;;5.65;3.40;;;;;;;;;;4436972;32;20558;-73
2021/06/22 02:07:00;;;;;;;6.43;3.53;;;;;;;;;;4437408;32;20263;-73
2021/06/22 02:09:25;;;;;;;10.23;4.12;;;;;;;;;;4437954;32;20512;-72
2021/06/22 02:11:51;;;;;;;6.80;4.18;;;;;;;;;;4436549;32;20130;-73
2021/06/22 02:14:16;;;;;;;8.77;4.07;;;;;;;;;;4422528;32;20170;-73
2021/06/22 02:16:41;;;;;;;8.77;4.10;;;;;;;;;;4436719;32;20156;-73
2021/06/22 02:19:06;;;;;;;6.18;3.35;;;;;;;;;;4436910;32;20134;-73
2021/06/22 02:21:31;;;;;;;6.18;3.50;;;;;;;;;;4436392;32;20229;-74
2021/06/22 02:23:56;;;;;;;8.73;3.73;;;;;;;;;;4437346;32;20293;-73
2021/06/22 02:26:21;;;;;;;8.73;3.87;;;;;;;;;;4437514;32;20545;-73
2021/06/22 02:28:47;;;;;;;5.15;3.25;;;;;;;;;;4436239;32;20256;-72
2021/06/22 02:31:12;;;;;;;9.23;3.92;;;;;;;;;;4436727;32;20233;-72
2021/06/22 02:33:37;;;;;;;6.85;3.83;;;;;;;;;;4423579;32;20173;-72
2021/06/22 02:36:02;;;;;;;8.60;4.22;;;;;;;;;;4422259;32;20177;-73
2021/06/22 02:38:28;;;;;;;6.55;3.78;;;;;;;;;;4437807;32;20232;-73
2021/06/22 02:40:53;;;;;;;12.18;3.90;;;;;;;;;;4438068;32;20138;-73
2021/06/22 02:43:18;;;;;;;11.60;4.72;;;;;;;;;;4436038;32;20163;-72
2021/06/22 02:45:43;;;;;;;9.00;4.22;;;;;;;;;;4437167;32;20149;-73
2021/06/22 02:48:10;;;;;;;7.62;4.57;;;;;;;;;;4423704;32;20173;-73
2021/06/22 02:50:35;;;;;;;10.40;4.70;;;;;;;;;;4421867;32;20217;-72
2021/06/22 02:53:00;;;;;;;10.38;4.50;;;;;;;;;;4437859;32;20172;-72
2021/06/22 02:55:26;;;;;;;8.25;4.70;;;;;;;;;;4437617;32;20153;-72
2021/06/22 02:57:52;;;;;;;8.65;4.65;;;;;;;;;;4437084;32;20638;-72
2021/06/22 03:00:22;;;;;;;9.32;4.45;;;;;;;;;;4437564;32;20145;-72
2021/06/22 03:02:47;;;;;;;9.43;4.87;;;;;;;;;;4436475;32;20181;-73
2021/06/22 03:05:13;;;;;;;11.98;6.22;;;;;;;;;;4437527;32;20175;-73
2021/06/22 03:07:38;;;;;;;9.27;5.47;;;;;;;;;;4421676;32;20161;-72
2021/06/22 03:10:08;;;;;;;11.95;6.10;;;;;;;;;;4436476;32;20189;-73
2021/06/22 03:12:33;;;;;;;11.98;6.35;;;;;;;;;;4436185;32;20447;-74
2021/06/22 03:14:58;;;;;;;12.05;6.10;;;;;;;;;;4437490;32;20133;-73
2021/06/22 03:17:23;;;;;;;12.63;6.70;;;;;;;;;;4437359;32;20164;-73
2021/06/22 03:19:48;;;;;;;13.67;8.23;;;;;;;;;;4437474;32;20232;-73
2021/06/22 03:22:14;;;;;;;14.95;8.65;;;;;;;;;;4436056;32;20244;-72
2021/06/22 03:24:39;;;;;;;17.73;8.40;;;;;;;;;;4423022;32;20322;-73
2021/06/22 03:27:05;;;;;;;16.35;8.65;;;;;;;;;;4437162;32;20163;-72
2021/06/22 03:29:30;;;;;;;11.27;7.62;;;;;;;;;;4435945;32;20549;-73
2021/06/22 03:31:55;;;;;;;16.55;8.07;;;;;;;;;;4437562;32;20164;-72
2021/06/22 03:34:20;;;;;;;12.18;6.97;;;;;;;;;;4435264;32;20244;-73
2021/06/22 03:36:45;;;;;;;15.40;7.47;;;;;;;;;;4437423;32;20141;-73
2021/06/22 03:39:10;;;;;;;10.70;6.85;;;;;;;;;;4437638;32;20134;-73
2021/06/22 03:41:36;;;;;;;13.67;7.70;;;;;;;;;;4421609;32;20165;-73
2021/06/22 03:44:02;;;;;;;13.07;7.95;;;;;;;;;;4436745;32;20233;-73
2021/06/22 03:46:27;;;;;;;13.27;6.62;;;;;;;;;;4435731;32;20543;-72
2021/06/22 03:48:52;;;;;;;14.32;7.07;;;;;;;;;;4421124;32;20165;-72
2021/06/22 03:51:18;;;;;;;12.85;6.70;;;;;;;;;;4436831;32;20137;-73
2021/06/22 03:53:43;;;;;;;14.23;7.43;;;;;;;;;;4421149;32;20222;-73
2021/06/22 03:56:08;;;;;;;13.70;6.80;;;;;;;;;;4436511;32;20172;-73
2021/06/22 03:58:34;;;;;;;13.05;7.05;;;;;;;;;;4435283;32;20130;-73
2021/06/22 04:01:00;;;;;;;14.07;6.37;;;;;;;;;;4435927;32;20191;-73
2021/06/22 04:03:25;;;;;;;9.80;6.43;;;;;;;;;;4435238;32;20148;-73
2021/06/22 04:05:50;;;;;;;12.80;7.15;;;;;;;;;;4437125;32;20555;-73
2021/06/22 04:08:15;;;;;;;14.67;6.90;;;;;;;;;;4437141;32;20130;-73
2021/06/22 04:10:41;;;;;;;12.95;6.72;;;;;;;;;;4435332;32;20596;-73
2021/06/22 04:13:06;;;;;;;11.90;7.30;;;;;;;;;;4422598;32;20195;-73
2021/06/22 04:15:31;;;;;;;12.00;6.80;;;;;;;;;;4435095;32;20157;-73
2021/06/22 04:18:08;;;;;;;12.23;6.67;;;;;;;;;;4435128;32;20228;-72
2021/06/22 04:20:34;;;;;;;12.63;6.97;;;;;;;;;;4437461;32;20303;-72
2021/06/22 04:22:59;;;;;;;14.82;6.85;;;;;;;;;;4436519;32;20246;-72
2021/06/22 04:25:24;;;;;;;10.90;6.70;;;;;;;;;;4422223;32;20511;-72
2021/06/22 04:27:50;;;;;;;15.32;7.65;;;;;;;;;;4435045;32;20193;-72
2021/06/22 04:30:15;;;;;;;14.73;7.70;;;;;;;;;;4436260;32;20208;-74
2021/06/22 04:32:40;;;;;;;13.82;7.10;;;;;;;;;;4436774;32;20177;-73
2021/06/22 04:35:06;;;;;;;14.25;7.22;;;;;;;;;;4435034;32;20180;-74
2021/06/22 04:37:31;;;;;;;14.65;7.68;;;;;;;;;;4436722;32;20130;-74
2021/06/22 04:39:56;;;;;;;16.08;8.45;;;;;;;;;;4436570;32;20213;-74
2021/06/22 04:42:21;;;;;;;11.23;7.07;;;;;;;;;;4423803;32;20713;-73
2021/06/22 04:44:47;;;;;;;12.50;6.90;;;;;;;;;;4438964;32;20129;-73
2021/06/22 04:47:12;;;;;;;11.25;6.60;;;;;;;;;;4439424;32;20154;-74
2021/06/22 04:49:37;;;;;;;15.13;7.10;;;;;;;;;;4437566;32;20472;-73
2021/06/22 04:52:02;;;;;;;12.30;6.40;;;;;;;;;;4423711;32;20292;-73
2021/06/22 04:54:28;;;;;;;11.75;5.82;;;;;;;;;;4439119;32;20145;-73
2021/06/22 04:56:53;;;;;;;13.43;6.00;;;;;;;;;;4438142;32;20470;-73
2021/06/22 04:59:18;;;;;;;18.15;7.00;;;;;;;;;;4438925;32;20137;-74
2021/06/22 05:01:43;;;;;;;11.32;6.18;;;;;;;;;;4439400;32;20176;-73
2021/06/22 05:04:08;;;;;;;15.68;6.53;;;;;;;;;;4425218;32;20220;-73
2021/06/22 05:06:34;;;;;;;11.30;5.43;;;;;;;;;;4439221;32;20585;-73
2021/06/22 05:08:59;;;;;;;12.07;6.07;;;;;;;;;;4438327;32;20321;-73
2021/06/22 05:11:24;;;;;;;14.45;7.25;;;;;;;;;;4437603;32;20138;-73
2021/06/22 05:13:51;;;;;;;12.57;6.53;;;;;;;;;;4423412;32;20212;-73
2021/06/22 05:16:17;;;;;;;18.70;7.40;;;;;;;;;;4424737;32;20158;-73
2021/06/22 05:18:42;;;;;;;13.57;9.35;;;;;;;;;;4438881;32;20137;-73
2021/06/22 05:21:07;;;;;;;23.58;12.15;;;;;;;;;;4438221;32;20134;-72
2021/06/22 05:23:32;;;;;;;25.17;13.05;;;;;;;;;;4438664;32;20149;-72
2021/06/22 05:25:57;;;;;;;22.37;13.13;;;;;;;;;;4438434;32;20152;-72
2021/06/22 05:28:23;;;;;;;21.90;13.20;;;;;;;;;;4423256;32;20275;-73
2021/06/22 05:30:48;;;;;;;23.90;13.77;;;;;;;;;;4424224;32;20161;-72
2021/06/22 05:33:13;;;;;;;25.12;14.30;;;;;;;;;;4438801;32;20212;-73
2021/06/22 05:35:38;;;;;;;20.70;13.57;;;;;;;;;;4438660;32;20176;-73
2021/06/22 05:38:03;;;;;;;22.70;13.37;;;;;;;;;;4438561;32;20176;-73
2021/06/22 05:40:29;;;;;;;23.70;12.98;;;;;;;;;;4438486;32;20297;-73
2021/06/22 05:42:54;;;;;;;25.15;14.27;;;;;;;;;;4436504;32;20201;-73
2021/06/22 05:45:19;;;;;;;24.45;13.85;;;;;;;;;;4438825;32;20234;-72
2021/06/22 05:47:45;;;;;;;19.67;14.23;;;;;;;;;;4422836;32;20218;-72
2021/06/22 05:50:11;;;;;;;25.02;14.18;;;;;;;;;;4438193;32;20142;-72
2021/06/22 05:52:36;;;;;;;23.77;13.23;;;;;;;;;;4435223;32;20137;-72
2021/06/22 05:55:02;;;;;;;20.15;14.02;;;;;;;;;;4422313;32;20277;-73
2021/06/22 05:57:27;;;;;;;23.73;13.98;;;;;;;;;;4438999;32;20204;-72
2021/06/22 05:59:53;;;;;;;23.25;15.27;;;;;;;;;;4438180;32;20172;-74
2021/06/22 06:02:18;;;;;;;22.77;14.35;;;;;;;;;;4428350;32;20169;-73
2021/06/22 06:04:43;;;;;;;25.17;14.55;;;;;;;;;;4427568;32;20621;-73
2021/06/22 06:07:09;;;;;;;21.55;13.27;;;;;;;;;;4433841;32;20666;-74
2021/06/22 06:09:34;;;;;;;25.40;13.90;;;;;;;;;;4420462;32;20196;-72
2021/06/22 06:11:59;;;;;;;23.70;13.80;;;;;;;;;;4434712;32;20292;-72
2021/06/22 06:14:24;;;;;;;21.87;13.50;;;;;;;;;;4433966;32;20495;-71
2021/06/22 06:16:49;;;;;;;23.17;14.45;;;;;;;;;;4434044;32;20506;-72
2021/06/22 06:19:15;;;;;;;20.35;12.82;;;;;;;;;;4434281;32;20168;-72
2021/06/22 06:21:40;;;;;;;27.77;14.00;;;;;;;;;;4433470;32;20849;-73
2021/06/22 06:24:06;;;;;;;21.25;12.48;;;;;;;;;;4418869;32;20700;-72
2021/06/22 06:26:37;;;;;;;19.73;12.63;;;;;;;;;;4412744;32;20649;-71
2021/06/22 06:29:14;;;;;;;20.77;12.93;;;;;;;;;;4435430;32;20129;-72
2021/06/22 06:31:39;;;;;;;23.60;12.75;;;;;;;;;;4420604;32;20595;-72
2021/06/22 06:34:04;;;;;;;20.57;12.10;;;;;;;;;;4433864;32;20184;-72
2021/06/22 06:36:29;;;;;;;22.90;12.82;;;;;;;;;;4421194;32;20284;-73
2021/06/22 06:38:54;;;;;;;24.02;13.40;;;;;;;;;;4420405;32;20259;-73
2021/06/22 06:41:20;;;;;;;19.25;12.70;;;;;;;;;;4421453;32;20774;-72
2021/06/22 06:43:45;;;;;;;16.17;10.82;;;;;;;;;;4421545;32;20229;-72
2021/06/22 06:46:10;;;;;;;24.92;12.27;;;;;;;;;;4405633;32;20718;-72
2021/06/22 06:48:36;;;;;;;22.37;13.05;;;;;;;;;;4427028;32;20499;-73
2021/06/22 06:51:02;;;;;;;17.33;11.88;;;;;;;;;;4431379;32;20192;-73
2021/06/22 06:53:28;;;;;;;19.80;11.93;;;;;;;;;;4431411;32;20153;-72
2021/06/22 06:55:53;;;;;;;16.48;10.70;;;;;;;;;;4418863;32;20884;-72
2021/06/22 06:58:18;;;;;;;18.63;12.07;;;;;;;;;;4431517;32;20142;-71
2021/06/22 07:00:43;;;;;;;17.83;11.12;;;;;;;;;;4432107;32;20574;-72
2021/06/22 07:03:08;;;;;;;19.55;10.75;;;;;;;;;;4430815;32;20277;-72
2021/06/22 07:05:34;;;;;;;21.25;11.68;;;;;;;;;;4417202;32;20165;-72
2021/06/22 07:07:59;;;;;;;17.67;11.12;;;;;;;;;;4433543;32;20201;-72
2021/06/22 07:10:25;;;;;;;21.02;11.60;;;;;;;;;;4433532;32;20177;-72
2021/06/22 07:12:52;;;;;;;15.98;11.65;;;;;;;;;;4428973;32;20184;-72
2021/06/22 07:15:18;;;;;;;16.60;11.80;;;;;;;;;;4431338;32;20164;-73
2021/06/22 07:17:43;;;;;;;18.20;11.57;;;;;;;;;;4418044;32;20527;-73
2021/06/22 07:20:09;;;;;;;18.25;11.35;;;;;;;;;;4433279;32;20157;-73
2021/06/22 07:22:34;;;;;;;17.30;11.25;;;;;;;;;;4431194;32;20141;-73
2021/06/22 07:24:59;;;;;;;19.65;11.60;;;;;;;;;;4417483;32;20226;-72
2021/06/22 07:27:25;;;;;;;15.30;10.73;;;;;;;;;;4417431;32;20173;-73
2021/06/22 07:29:50;;;;;;;21.95;11.27;;;;;;;;;;4416677;32;20657;-73
2021/06/22 07:32:16;;;;;;;18.40;9.57;;;;;;;;;;4416782;32;20243;-73
2021/06/22 07:34:41;;;;;;;14.57;10.37;;;;;;;;;;4433174;32;20296;-72
2021/06/22 07:37:06;;;;;;;19.95;10.52;;;;;;;;;;4432155;32;20251;-72
2021/06/22 07:39:31;;;;;;;16.37;11.07;;;;;;;;;;4432330;32;20206;-72
2021/06/22 07:41:56;;;;;;;21.77;10.47;;;;;;;;;;4433355;32;20275;-73
2021/06/22 07:44:21;;;;;;;18.17;10.98;;;;;;;;;;4432589;32;20228;-73
2021/06/22 07:46:47;;;;;;;15.35;10.15;;;;;;;;;;4433616;32;20638;-72
2021/06/22 07:49:12;;;;;;;15.50;10.02;;;;;;;;;;4433887;32;20566;-72
2021/06/22 07:51:37;;;;;;;16.50;9.60;;;;;;;;;;4433815;32;20950;-72
2021/06/22 07:54:02;;;;;;;15.40;8.15;;;;;;;;;;4431955;32;20275;-72
2021/06/22 07:56:27;;;;;;;16.35;9.45;;;;;;;;;;4431606;32;20305;-71
2021/06/22 07:58:52;;;;;;;12.88;9.45;;;;;;;;;;4433164;32;20447;-72
2021/06/22 08:01:18;;;;;;;14.82;9.30;;;;;;;;;;4431372;32;20499;-73
2021/06/22 08:03:43;;;;;;;15.27;9.45;;;;;;;;;;4431014;32;20256;-73
2021/06/22 08:06:08;;;;;;;16.95;8.45;;;;;;;;;;4415923;32;20509;-73
2021/06/22 08:08:33;;;;;;;14.90;9.10;;;;;;;;;;4415407;32;20318;-72
2021/06/22 08:10:59;;;;;;;11.27;8.90;;;;;;;;;;4425728;32;20638;-73
2021/06/22 08:13:24;;;;;;;18.42;9.77;;;;;;;;;;4419145;32;20158;-71
2021/06/22 08:15:50;;;;;;;14.38;9.05;;;;;;;;;;4427077;32;20200;-72
2021/06/22 08:18:16;;;;;;;11.85;8.77;;;;;;;;;;4425033;32;20161;-72
2021/06/22 08:20:41;;;;;;;16.65;9.40;;;;;;;;;;4431694;32;20550;-71
2021/06/22 08:23:07;;;;;;;16.70;10.18;;;;;;;;;;4420984;32;20686;-72
2021/06/22 08:25:32;;;;;;;14.13;9.52;;;;;;;;;;4406661;32;20220;-72
2021/06/22 08:27:58;;;;;;;14.35;9.20;;;;;;;;;;4424611;32;20145;-72
2021/06/22 08:30:24;;;;;;;12.30;8.30;;;;;;;;;;4438485;32;20913;-72
2021/06/22 08:32:49;;;;;;;15.80;9.27;;;;;;;;;;4420812;32;20177;-72
2021/06/22 08:35:14;;;;;;;15.85;8.73;;;;;;;;;;4434595;32;20168;-72
2021/06/22 08:37:40;;;;;;;12.07;8.43;;;;;;;;;;4434467;32;20199;-72
2021/06/22 08:40:06;;;;;;;15.07;9.52;;;;;;;;;;4434405;32;20142;-72
2021/06/22 08:42:33;;;;;;;15.23;9.50;;;;;;;;;;4419964;32;20219;-70
2021/06/22 08:44:59;;;;;;;12.27;8.00;;;;;;;;;;4433913;32;20198;-71
2021/06/22 08:47:25;;;;;;;14.93;8.95;;;;;;;;;;4419464;32;20205;-71
2021/06/22 08:49:55;;;;;;;12.82;7.55;;;;;;;;;;4423741;32;20231;-70
2021/06/22 08:52:23;;;;;;;13.62;8.35;;;;;;;;;;4432689;32;20142;-71
2021/06/22 08:54:48;;;;;;;13.43;8.52;;;;;;;;;;4429784;32;20158;-71
2021/06/22 08:57:13;;;;;;;12.65;8.88;;;;;;;;;;4419882;32;20207;-71
2021/06/22 08:59:40;;;;;;;10.98;8.35;;;;;;;;;;4418712;32;20160;-72
2021/06/22 09:02:05;;;;;;;11.40;7.43;;;;;;;;;;4418732;32;20237;-71
2021/06/22 09:04:30;;;;;;;11.75;8.02;;;;;;;;;;4435783;32;20137;-72
2021/06/22 09:06:56;;;;;;;12.65;8.02;;;;;;;;;;4433572;32;20217;-71
2021/06/22 09:09:32;;;;;;;11.38;8.10;;;;;;;;;;4419710;32;20324;-71
2021/06/22 09:12:08;;;;;;;8.85;7.65;;;;;;;;;;4435844;32;20228;-72
2021/06/22 09:14:40;;;;;;;13.98;8.27;;;;;;;;;;4433458;32;20204;-71
2021/06/22 09:17:06;;;;;;;13.13;8.20;;;;;;;;;;4418449;32;20173;-71
2021/06/22 09:19:31;;;;;;;12.45;8.23;;;;;;;;;;4419909;32;20660;-71
2021/06/22 09:21:57;;;;;;;13.15;8.35;;;;;;;;;;4433141;32;20137;-71
2021/06/22 09:24:26;;;;;;;9.98;7.57;;;;;;;;;;4434517;32;20137;-71
2021/06/22 09:26:52;;;;;;;13.85;7.95;;;;;;;;;;4433725;32;20445;-72
2021/06/22 09:29:20;;;;;;;11.75;8.25;;;;;;;;;;4435344;32;20194;-72
2021/06/22 09:31:56;;;;;;;15.00;8.60;;;;;;;;;;4432181;32;20157;-73
2021/06/22 09:34:24;;;;;;;13.07;8.07;;;;;;;;;;4431013;32;20197;-72
2021/06/22 09:36:51;;;;;;;12.23;7.70;;;;;;;;;;4418745;32;20826;-71
2021/06/22 09:39:16;;;;;;;15.18;7.70;;;;;;;;;;4434034;32;20494;-72
2021/06/22 09:41:42;;;;;;;13.57;7.57;;;;;;;;;;4435316;32;20168;-72
2021/06/22 09:44:09;;;;;;;10.52;7.07;;;;;;;;;;4434401;32;20204;-71
2021/06/22 09:46:39;;;;;;;10.85;7.12;;;;;;;;;;4433068;32;20168;-72
2021/06/22 09:49:05;;;;;;;10.90;6.65;;;;;;;;;;4432848;32;20184;-71
2021/06/22 09:51:36;;;;;;;11.27;6.43;;;;;;;;;;4418899;32;20224;-71
2021/06/22 09:54:08;;;;;;;8.05;6.68;;;;;;;;;;4434260;32;20161;-71
2021/06/22 09:56:33;;;;;;;9.10;5.78;;;;;;;;;;4418726;32;20212;-72
2021/06/22 09:59:05;;;;;;;11.07;6.45;;;;;;;;;;4420482;32;20173;-71
2021/06/22 10:01:31;;;;;;;7.82;5.40;;;;;;;;;;4433254;32;20915;-71
2021/06/22 10:04:10;;;;;;;9.85;5.50;;;;;;;;;;4432226;32;20579;-71
2021/06/22 10:06:35;;;;;;;9.52;5.07;;;;;;;;;;4432682;32;20252;-71
2021/06/22 10:09:00;;;;;;;8.60;4.30;;;;;;;;;;4413848;32;20611;-70
2021/06/22 10:11:30;;;;;;;9.57;4.13;;;;;;;;;;4405554;32;20303;-70
2021/06/22 10:13:55;;;;;;;8.25;3.92;;;;;;;;;;4419161;32;20662;-70
2021/06/22 10:16:25;;;;;;;8.05;3.78;;;;;;;;;;4403368;32;20200;-71
2021/06/22 10:18:50;;;;;;;8.60;3.60;;;;;;;;;;4405293;32;20178;-71
2021/06/22 10:21:16;;;;;;;7.62;3.83;;;;;;;;;;4434651;32;20577;-71
2021/06/22 10:23:41;;;;;;;8.32;3.85;;;;;;;;;;4435014;32;20215;-70
2021/06/22 10:26:07;;;;;;;5.07;3.78;;;;;;;;;;4433731;32;20582;-70
2021/06/22 10:28:33;;;;;;;7.37;3.75;;;;;;;;;;4435676;32;20566;-70
2021/06/22 10:30:59;;;;;;;7.20;3.70;;;;;;;;;;4434582;32;20171;-71
2021/06/22 10:33:24;;;;;;;6.20;3.65;;;;;;;;;;4433338;32;20157;-71
2021/06/22 10:35:49;;;;;;;6.93;3.13;;;;;;;;;;4435366;32;20702;-71
2021/06/22 10:38:16;;;;;;;8.75;3.83;;;;;;;;;;4418647;32;20285;-71
2021/06/22 10:40:41;;;;;;;6.57;4.05;;;;;;;;;;4419100;32;20209;-71
2021/06/22 10:43:07;;;;;;;7.65;4.03;;;;;;;;;;4434841;32;20176;-72
2021/06/22 10:45:32;;;;;;;9.57;4.70;;;;;;;;;;4434171;32;20172;-71
2021/06/22 10:47:59;;;;;;;10.93;4.55;;;;;;;;;;4433384;32;20259;-71
2021/06/22 10:50:29;;;;;;;9.23;5.05;;;;;;;;;;4428013;32;20145;-71
2021/06/22 10:53:00;;;;;;;8.75;4.50;;;;;;;;;;4433073;32;20243;-71
2021/06/22 10:55:30;;;;;;;9.13;4.87;;;;;;;;;;4432987;32;20145;-71
2021/06/22 10:58:01;;;;;;;6.95;4.55;;;;;;;;;;4432795;32;20150;-71
2021/06/22 11:00:30;;;;;;;9.15;4.57;;;;;;;;;;4432477;32;20162;-71
2021/06/22 11:02:58;;;;;;;7.97;3.80;;;;;;;;;;4433111;32;20223;-71
2021/06/22 11:05:23;;;;;;;7.97;4.00;;;;;;;;;;4432605;32;20137;-71
2021/06/22 11:08:09;;;;;;;10.32;4.10;;;;;;;;;;4422484;32;20511;-71
2021/06/22 11:10:34;;;;;;;8.45;4.05;;;;;;;;;;4406162;32;20174;-71
2021/06/22 11:12:59;;;;;;;7.45;4.12;;;;;;;;;;4428207;32;20188;-71
2021/06/22 11:15:44;;;;;;;9.65;5.32;;;;;;;;;;4434049;32;20145;-70
2021/06/22 11:18:10;;;;;;;12.65;6.00;;;;;;;;;;4418559;32;20193;-72
2021/06/22 11:20:35;;;;;;;9.52;5.22;;;;;;;;;;4432196;32;20145;-71
2021/06/22 11:23:11;;;;;;;12.27;6.00;;;;;;;;;;4433529;32;20675;-71
2021/06/22 11:25:46;;;;;;;9.65;5.45;;;;;;;;;;4433312;32;20171;-70
2021/06/22 11:28:12;;;;;;;8.13;5.00;;;;;;;;;;4432242;32;20180;-72
2021/06/22 11:30:56;;;;;;;12.20;4.82;;;;;;;;;;4432613;32;20204;-70
2021/06/22 11:33:32;;;;;;;10.98;5.20;;;;;;;;;;4432695;32;20185;-71
2021/06/22 11:36:16;;;;;;;11.00;5.47;;;;;;;;;;4432343;32;20157;-71
2021/06/22 11:38:42;;;;;;;10.57;4.93;;;;;;;;;;4418173;32;20531;-71
2021/06/22 11:41:11;;;;;;;9.63;4.85;;;;;;;;;;4433731;32;20172;-71
2021/06/22 11:43:37;;;;;;;15.88;5.55;;;;;;;;;;4432920;32;20158;-71
2021/06/22 11:46:20;;;;;;;11.02;5.03;;;;;;;;;;4433475;32;20156;-71
2021/06/22 11:48:56;;;;;;;12.37;5.20;;;;;;;;;;4432773;32;20165;-72
2021/06/22 11:51:40;;;;;;;11.50;5.37;;;;;;;;;;4432623;32;20219;-71
2021/06/22 11:54:05;;;;;;;10.25;4.68;;;;;;;;;;4424213;32;20192;-72
2021/06/22 11:56:30;;;;;;;12.43;5.20;;;;;;;;;;4408984;32;20204;-72
2021/06/22 11:58:55;;;;;;;11.15;4.62;;;;;;;;;;4435201;32;20749;-72
2021/06/22 12:01:22;;;;;;;8.80;4.53;;;;;;;;;;4437206;32;20145;-72
2021/06/22 12:03:52;;;;;;;10.93;4.50;;;;;;;;;;4422638;32;20193;-72
2021/06/22 12:06:20;;;;;;;10.18;4.95;;;;;;;;;;4422606;32;20173;-72
2021/06/22 12:08:45;;;;;;;9.32;5.03;;;;;;;;;;4435696;32;20149;-72
2021/06/22 12:11:12;;;;;;;9.20;4.50;;;;;;;;;;4437235;32;20172;-71
2021/06/22 12:13:39;;;;;;;11.45;4.53;;;;;;;;;;4436820;32;20320;-71
2021/06/22 12:16:11;;;;;;;8.52;4.57;;;;;;;;;;4435809;32;20184;-71
2021/06/22 12:18:36;;;;;;;9.00;4.15;;;;;;;;;;4437194;32;20172;-72
2021/06/22 12:21:04;;;;;;;9.87;3.93;;;;;;;;;;4436634;32;20169;-70
2021/06/22 12:23:29;;;;;;;12.25;4.18;;;;;;;;;;4435379;32;20259;-71
2021/06/22 12:25:54;;;;;;;6.95;3.90;;;;;;;;;;4436482;32;20145;-70
2021/06/22 12:28:22;;;;;;;8.20;4.05;;;;;;;;;;4435273;32;20141;-71
2021/06/22 12:30:48;;;;;;;9.48;4.10;;;;;;;;;;4436733;32;20145;-71
2021/06/22 12:33:16;;;;;;;5.47;3.47;;;;;;;;;;4435218;32;20638;-71
2021/06/22 12:35:42;;;;;;;9.65;4.05;;;;;;;;;;4436810;32;20180;-71
2021/06/22 12:38:09;;;;;;;9.20;3.90;;;;;;;;;;4436172;32;20446;-71
2021/06/22 12:40:42;;;;;;;8.80;3.47;;;;;;;;;;4435827;32;20286;-71
2021/06/22 12:43:07;;;;;;;5.85;3.78;;;;;;;;;;4435608;32;20142;-71
2021/06/22 12:45:32;;;;;;;9.53;3.90;;;;;;;;;;4422393;32;20204;-71
2021/06/22 12:47:57;;;;;;;6.78;3.80;;;;;;;;;;4421134;32;20651;-70
2021/06/22 12:50:22;;;;;;;8.90;4.95;;;;;;;;;;4422431;32;20288;-71
2021/06/22 12:52:48;;;;;;;7.40;4.70;;;;;;;;;;4435881;32;20251;-71
2021/06/22 12:55:34;;;;;;;7.43;4.95;;;;;;;;;;4436211;32;20801;-71
2021/06/22 12:57:58;;;;;;;9.05;5.05;;;;;;;;;;4429958;32;20209;-70
2021/06/22 13:00:34;;;;;;;7.93;4.80;;;;;;;;;;4411765;32;20178;-71
2021/06/22 13:03:11;;;;;;;9.45;4.80;;;;;;;;;;4418651;32;20637;-71
2021/06/22 13:05:38;;;;;;;10.13;5.18;;;;;;;;;;4419916;32;20145;-71
2021/06/22 13:08:04;;;;;;;9.63;5.15;;;;;;;;;;4419587;32;20176;-71
2021/06/22 13:10:29;;;;;;;10.57;4.85;;;;;;;;;;4435102;32;20188;-70
2021/06/22 13:12:54;;;;;;;8.10;4.87;;;;;;;;;;4434945;32;20176;-70
2021/06/22 13:15:30;;;;;;;9.93;5.22;;;;;;;;;;4420621;32;20247;-71
2021/06/22 13:17:55;;;;;;;9.45;5.30;;;;;;;;;;4421584;32;20169;-71
2021/06/22 13:20:24;;;;;;;9.20;5.20;;;;;;;;;;4435173;32;20188;-71
2021/06/22 13:22:50;;;;;;;10.50;5.50;;;;;;;;;;4422446;32;20962;-71
2021/06/22 13:25:18;;;;;;;8.60;4.70;;;;;;;;;;4427512;32;20153;-70
2021/06/22 13:27:44;;;;;;;9.35;5.43;;;;;;;;;;4420041;32;20146;-71
2021/06/22 13:30:14;;;;;;;11.63;5.43;;;;;;;;;;4421276;32;20173;-71
2021/06/22 13:32:39;;;;;;;10.82;6.10;;;;;;;;;;4404964;32;20200;-71
2021/06/22 13:35:06;;;;;;;9.27;5.40;;;;;;;;;;4426776;32;20150;-71
2021/06/22 13:37:31;;;;;;;9.75;5.03;;;;;;;;;;4434141;32;20176;-71
2021/06/22 13:39:59;;;;;;;10.40;6.45;;;;;;;;;;4434174;32;20221;-72
2021/06/22 13:42:25;;;;;;;11.60;5.93;;;;;;;;;;4419783;32;20600;-71
2021/06/22 13:44:52;;;;;;;11.55;6.50;;;;;;;;;;4434454;32;20215;-71
2021/06/22 13:47:31;;;;;;;8.20;5.97;;;;;;;;;;4434532;32;20199;-71
2021/06/22 13:49:59;;;;;;;12.20;6.62;;;;;;;;;;4433191;32;20568;-71
2021/06/22 13:52:24;;;;;;;10.20;6.30;;;;;;;;;;4419597;32;20189;-71
2021/06/22 13:54:56;;;;;;;13.95;6.60;;;;;;;;;;4418993;32;20510;-71
2021/06/22 13:57:21;;;;;;;9.75;5.93;;;;;;;;;;4433642;32;20403;-71
2021/06/22 13:59:46;;;;;;;7.57;5.87;;;;;;;;;;4418864;32;20622;-71
2021/06/22 14:02:12;;;;;;;6.90;5.37;;;;;;;;;;4434181;32;20149;-69
2021/06/22 14:04:37;;;;;;;11.98;6.53;;;;;;;;;;4433109;32;20632;-70
2021/06/22 14:07:02;;;;;;;9.40;6.00;;;;;;;;;;4418039;32;20196;-70
2021/06/22 14:09:27;;;;;;;9.70;5.47;;;;;;;;;;4429194;32;20543;-71
2021/06/22 14:11:52;;;;;;;7.83;5.87;;;;;;;;;;4410454;32;20241;-72
2021/06/22 14:14:17;;;;;;;8.65;4.82;;;;;;;;;;4429517;32;20272;-71
2021/06/22 14:16:43;;;;;;;9.10;4.93;;;;;;;;;;4418495;32;20310;-71
2021/06/22 14:19:09;;;;;;;6.65;5.07;;;;;;;;;;4403297;32;20316;-71
2021/06/22 14:21:34;;;;;;;9.45;5.18;;;;;;;;;;4404708;32;20212;-71
2021/06/22 14:23:59;;;;;;;8.10;5.57;;;;;;;;;;4418009;32;20197;-71
2021/06/22 14:26:24;;;;;;;9.00;5.68;;;;;;;;;;4403349;32;20896;-71
2021/06/22 14:28:49;;;;;;;11.83;6.33;;;;;;;;;;4416719;32;20180;-70